sensor_id;sensor_type;location;lat;lon;timestamp;temperature;humidity
32334;DHT22;18810;53.040;8.850;2023-04-15T00:00:49;9.20;99.90
32334;DHT22;18810;53.040;8.850;2023-04-15T00:03:16;9.20;99.90
32334;DHT22;18810;53.040;8.850;2023-04-15T00:05:43;9.10;99.90
32334;DHT22;18810;53.040;8.850;2023-04-15T00:08:09;9.10;99.90
32334;DHT22;18810;53.040;8.850;2023-04-15T00:10:34;9.10;99.90
32334;DHT22;18810;53.040;8.850;2023-04-15T00:13:00;9.10;99.90
32334;DHT22;18810;53.040;8.850;2023-04-15T00:15:27;9.10;99.90
32334;DHT22;18810;53.040;8.850;2023-04-15T00:17:53;9.10;99.90
32334;DHT22;18810;53.040;8.850;2023-04-15T00:20:18;9.10;99.90
32334;DHT22;18810;53.040;8.850;2023-04-15T00:22:44;9.00;99.90
32334;DHT22;18810;53.040;8.850;2023-04-15T00:25:11;9.00;99.90
32334;DHT22;18810;53.040;8.850;2023-04-15T00:27:37;9.10;99.90
32334;DHT22;18810;53.040;8.850;2023-04-15T00:30:03;9.10;99.90
32334;DHT22;18810;53.040;8.850;2023-04-15T00:32:29;9.10;99.90
32334;DHT22;18810;53.040;8.850;2023-04-15T00:34:55;9.10;99.90
32334;DHT22;18810;53.040;8.850;2023-04-15T00:37:21;9.10;99.90
32334;DHT22;18810;53.040;8.850;2023-04-15T00:39:48;9.10;99.90
32334;DHT22;18810;53.040;8.850;2023-04-15T00:42:14;9.10;99.90
32334;DHT22;18810;53.040;8.850;2023-04-15T00:44:40;9.00;99.90
32334;DHT22;18810;53.040;8.850;2023-04-15T00:47:05;9.00;99.90
32334;DHT22;18810;53.040;8.850;2023-04-15T00:49:31;8.90;99.90
32334;DHT22;18810;53.040;8.850;2023-04-15T00:51:57;8.90;99.90
32334;DHT22;18810;53.040;8.850;2023-04-15T00:54:23;8.80;99.90
32334;DHT22;18810;53.040;8.850;2023-04-15T00:56:49;8.80;99.90
32334;DHT22;18810;53.040;8.850;2023-04-15T00:59:16;8.80;99.90
32334;DHT22;18810;53.040;8.850;2023-04-15T01:01:43;8.90;99.90
32334;DHT22;18810;53.040;8.850;2023-04-15T01:04:09;8.90;99.90
32334;DHT22;18810;53.040;8.850;2023-04-15T01:06:36;8.80;99.90
32334;DHT22;18810;53.040;8.850;2023-04-15T01:09:02;8.80;99.90
32334;DHT22;18810;53.040;8.850;2023-04-15T01:11:28;8.80;99.90
32334;DHT22;18810;53.040;8.850;2023-04-15T01:13:57;8.80;99.90
32334;DHT22;18810;53.040;8.850;2023-04-15T01:16:23;8.80;99.90
32334;DHT22;18810;53.040;8.850;2023-04-15T01:18:48;8.90;99.90
32334;DHT22;18810;53.040;8.850;2023-04-15T01:21:14;8.90;99.90
32334;DHT22;18810;53.040;8.850;2023-04-15T01:23:40;8.90;99.90
32334;DHT22;18810;53.040;8.850;2023-04-15T01:26:06;8.80;99.90
32334;DHT22;18810;53.040;8.850;2023-04-15T01:28:34;8.80;99.90
32334;DHT22;18810;53.040;8.850;2023-04-15T01:31:10;8.80;99.90
32334;DHT22;18810;53.040;8.850;2023-04-15T01:33:38;8.90;99.90
32334;DHT22;18810;53.040;8.850;2023-04-15T01:36:05;8.80;99.90
32334;DHT22;18810;53.040;8.850;2023-04-15T01:38:31;9.00;99.90
32334;DHT22;18810;53.040;8.850;2023-04-15T01:40:57;8.80;99.90
32334;DHT22;18810;53.040;8.850;2023-04-15T01:43:24;8.80;99.90
32334;DHT22;18810;53.040;8.850;2023-04-15T01:45:50;8.90;99.90
32334;DHT22;18810;53.040;8.850;2023-04-15T01:48:16;8.80;99.90
32334;DHT22;18810;53.040;8.850;2023-04-15T01:50:42;8.80;99.90
32334;DHT22;18810;53.040;8.850;2023-04-15T01:53:08;8.80;99.90
32334;DHT22;18810;53.040;8.850;2023-04-15T01:55:34;8.80;99.90
32334;DHT22;18810;53.040;8.850;2023-04-15T01:58:00;8.80;99.90
32334;DHT22;18810;53.040;8.850;2023-04-15T02:00:25;8.70;99.90
32334;DHT22;18810;53.040;8.850;2023-04-15T02:02:51;8.70;99.90
32334;DHT22;18810;53.040;8.850;2023-04-15T02:05:17;8.70;99.90
32334;DHT22;18810;53.040;8.850;2023-04-15T02:07:43;8.60;99.90
32334;DHT22;18810;53.040;8.850;2023-04-15T02:10:09;8.60;99.90
32334;DHT22;18810;53.040;8.850;2023-04-15T02:12:38;8.60;99.90
32334;DHT22;18810;53.040;8.850;2023-04-15T02:15:04;8.50;99.90
32334;DHT22;18810;53.040;8.850;2023-04-15T02:17:33;8.40;99.90
32334;DHT22;18810;53.040;8.850;2023-04-15T02:19:59;8.40;99.90
32334;DHT22;18810;53.040;8.850;2023-04-15T02:22:25;8.50;99.90
32334;DHT22;18810;53.040;8.850;2023-04-15T02:24:51;8.50;99.90
32334;DHT22;18810;53.040;8.850;2023-04-15T02:27:17;8.40;99.90
32334;DHT22;18810;53.040;8.850;2023-04-15T02:29:46;8.40;99.90
32334;DHT22;18810;53.040;8.850;2023-04-15T02:32:12;8.40;99.90
32334;DHT22;18810;53.040;8.850;2023-04-15T02:34:39;8.40;99.90
32334;DHT22;18810;53.040;8.850;2023-04-15T02:37:11;8.30;99.90
32334;DHT22;18810;53.040;8.850;2023-04-15T02:39:37;8.30;99.90
32334;DHT22;18810;53.040;8.850;2023-04-15T02:42:03;8.40;99.90
32334;DHT22;18810;53.040;8.850;2023-04-15T02:44:30;8.50;99.90
32334;DHT22;18810;53.040;8.850;2023-04-15T02:46:57;8.40;99.90
32334;DHT22;18810;53.040;8.850;2023-04-15T02:49:24;8.40;99.90
32334;DHT22;18810;53.040;8.850;2023-04-15T02:51:50;8.40;99.90
32334;DHT22;18810;53.040;8.850;2023-04-15T02:54:17;8.40;99.90
32334;DHT22;18810;53.040;8.850;2023-04-15T02:56:42;8.40;99.90
32334;DHT22;18810;53.040;8.850;2023-04-15T02:59:08;8.30;99.90
32334;DHT22;18810;53.040;8.850;2023-04-15T03:01:34;8.30;99.90
32334;DHT22;18810;53.040;8.850;2023-04-15T03:04:00;8.30;99.90
32334;DHT22;18810;53.040;8.850;2023-04-15T03:06:26;8.40;99.90
32334;DHT22;18810;53.040;8.850;2023-04-15T03:08:51;8.40;99.90
32334;DHT22;18810;53.040;8.850;2023-04-15T03:11:18;8.40;99.90
32334;DHT22;18810;53.040;8.850;2023-04-15T03:13:44;8.40;99.90
32334;DHT22;18810;53.040;8.850;2023-04-15T03:16:10;8.40;99.90
32334;DHT22;18810;53.040;8.850;2023-04-15T03:18:36;8.40;99.90
32334;DHT22;18810;53.040;8.850;2023-04-15T03:21:02;8.40;99.90
32334;DHT22;18810;53.040;8.850;2023-04-15T03:23:30;8.40;99.90
32334;DHT22;18810;53.040;8.850;2023-04-15T03:25:56;8.30;99.90
32334;DHT22;18810;53.040;8.850;2023-04-15T03:28:23;8.30;99.90
32334;DHT22;18810;53.040;8.850;2023-04-15T03:30:49;8.20;99.90
32334;DHT22;18810;53.040;8.850;2023-04-15T03:33:15;8.20;99.90
32334;DHT22;18810;53.040;8.850;2023-04-15T03:35:40;8.30;99.90
32334;DHT22;18810;53.040;8.850;2023-04-15T03:38:06;8.30;99.90
32334;DHT22;18810;53.040;8.850;2023-04-15T03:40:33;8.40;99.90
32334;DHT22;18810;53.040;8.850;2023-04-15T03:42:59;8.40;99.90
32334;DHT22;18810;53.040;8.850;2023-04-15T03:45:24;8.40;99.90
32334;DHT22;18810;53.040;8.850;2023-04-15T03:47:50;8.40;99.90
32334;DHT22;18810;53.040;8.850;2023-04-15T03:50:16;8.60;99.90
32334;DHT22;18810;53.040;8.850;2023-04-15T03:52:42;8.60;99.90
32334;DHT22;18810;53.040;8.850;2023-04-15T03:55:08;8.50;99.90
32334;DHT22;18810;53.040;8.850;2023-04-15T03:57:34;8.60;99.90
32334;DHT22;18810;53.040;8.850;2023-04-15T04:00:04;8.60;99.90
32334;DHT22;18810;53.040;8.850;2023-04-15T04:02:30;8.60;99.90
32334;DHT22;18810;53.040;8.850;2023-04-15T04:04:56;8.60;99.90
32334;DHT22;18810;53.040;8.850;2023-04-15T04:07:23;8.60;99.90
32334;DHT22;18810;53.040;8.850;2023-04-15T04:09:49;8.60;99.90
32334;DHT22;18810;53.040;8.850;2023-04-15T04:12:15;8.60;99.90
32334;DHT22;18810;53.040;8.850;2023-04-15T04:14:41;8.50;99.90
32334;DHT22;18810;53.040;8.850;2023-04-15T04:17:06;8.50;99.90
32334;DHT22;18810;53.040;8.850;2023-04-15T04:19:32;8.40;99.90
32334;DHT22;18810;53.040;8.850;2023-04-15T04:21:58;8.20;99.90
32334;DHT22;18810;53.040;8.850;2023-04-15T04:24:24;8.20;99.90
32334;DHT22;18810;53.040;8.850;2023-04-15T04:26:50;8.30;99.90
32334;DHT22;18810;53.040;8.850;2023-04-15T04:29:15;8.20;99.90
32334;DHT22;18810;53.040;8.850;2023-04-15T04:31:41;8.30;99.90
32334;DHT22;18810;53.040;8.850;2023-04-15T04:34:07;8.30;99.90
32334;DHT22;18810;53.040;8.850;2023-04-15T04:36:32;8.30;99.90
32334;DHT22;18810;53.040;8.850;2023-04-15T04:38:58;8.40;99.90
32334;DHT22;18810;53.040;8.850;2023-04-15T04:41:24;8.30;99.90
32334;DHT22;18810;53.040;8.850;2023-04-15T04:43:50;8.30;99.90
32334;DHT22;18810;53.040;8.850;2023-04-15T04:46:15;8.30;99.90
32334;DHT22;18810;53.040;8.850;2023-04-15T04:48:41;8.40;99.90
32334;DHT22;18810;53.040;8.850;2023-04-15T04:51:07;8.40;99.90
32334;DHT22;18810;53.040;8.850;2023-04-15T04:53:34;8.30;99.90
32334;DHT22;18810;53.040;8.850;2023-04-15T04:56:02;8.30;99.90
32334;DHT22;18810;53.040;8.850;2023-04-15T04:58:27;8.40;99.90
32334;DHT22;18810;53.040;8.850;2023-04-15T05:00:53;8.20;99.90
32334;DHT22;18810;53.040;8.850;2023-04-15T05:03:19;8.30;99.90
32334;DHT22;18810;53.040;8.850;2023-04-15T05:05:46;8.20;99.90
32334;DHT22;18810;53.040;8.850;2023-04-15T05:08:14;8.30;99.90
32334;DHT22;18810;53.040;8.850;2023-04-15T05:10:39;8.20;99.90
32334;DHT22;18810;53.040;8.850;2023-04-15T05:13:05;8.20;99.90
32334;DHT22;18810;53.040;8.850;2023-04-15T05:15:31;8.20;99.90
32334;DHT22;18810;53.040;8.850;2023-04-15T05:17:57;8.20;99.90
32334;DHT22;18810;53.040;8.850;2023-04-15T05:20:23;8.10;99.90
32334;DHT22;18810;53.040;8.850;2023-04-15T05:22:49;8.20;99.90
32334;DHT22;18810;53.040;8.850;2023-04-15T05:25:14;8.20;99.90
32334;DHT22;18810;53.040;8.850;2023-04-15T05:27:40;8.20;99.90
32334;DHT22;18810;53.040;8.850;2023-04-15T05:30:07;8.20;99.90
32334;DHT22;18810;53.040;8.850;2023-04-15T05:32:33;8.20;99.90
32334;DHT22;18810;53.040;8.850;2023-04-15T05:34:59;8.20;99.90
32334;DHT22;18810;53.040;8.850;2023-04-15T05:37:25;8.20;99.90
32334;DHT22;18810;53.040;8.850;2023-04-15T05:39:50;8.20;99.90
32334;DHT22;18810;53.040;8.850;2023-04-15T05:42:16;8.20;99.90
32334;DHT22;18810;53.040;8.850;2023-04-15T05:44:42;8.20;99.90
32334;DHT22;18810;53.040;8.850;2023-04-15T05:47:08;8.20;99.90
32334;DHT22;18810;53.040;8.850;2023-04-15T05:49:35;8.20;99.90
32334;DHT22;18810;53.040;8.850;2023-04-15T05:52:01;8.20;99.90
32334;DHT22;18810;53.040;8.850;2023-04-15T05:54:27;8.20;99.90
32334;DHT22;18810;53.040;8.850;2023-04-15T05:56:53;8.20;99.90
32334;DHT22;18810;53.040;8.850;2023-04-15T05:59:19;8.20;99.90
32334;DHT22;18810;53.040;8.850;2023-04-15T06:01:45;8.10;99.90
32334;DHT22;18810;53.040;8.850;2023-04-15T06:04:10;8.10;99.90
32334;DHT22;18810;53.040;8.850;2023-04-15T06:06:36;8.20;99.90
32334;DHT22;18810;53.040;8.850;2023-04-15T06:09:03;8.20;99.90
32334;DHT22;18810;53.040;8.850;2023-04-15T06:11:29;8.10;99.90
32334;DHT22;18810;53.040;8.850;2023-04-15T06:13:55;8.10;99.90
32334;DHT22;18810;53.040;8.850;2023-04-15T06:16:21;8.00;99.90
32334;DHT22;18810;53.040;8.850;2023-04-15T06:18:48;8.10;99.90
32334;DHT22;18810;53.040;8.850;2023-04-15T06:21:14;8.10;99.90
32334;DHT22;18810;53.040;8.850;2023-04-15T06:23:40;8.20;99.90
32334;DHT22;18810;53.040;8.850;2023-04-15T06:26:07;8.20;99.90
32334;DHT22;18810;53.040;8.850;2023-04-15T06:28:32;8.20;99.90
32334;DHT22;18810;53.040;8.850;2023-04-15T06:30:58;8.10;99.90
32334;DHT22;18810;53.040;8.850;2023-04-15T06:33:25;8.10;99.90
32334;DHT22;18810;53.040;8.850;2023-04-15T06:35:51;8.20;99.90
32334;DHT22;18810;53.040;8.850;2023-04-15T06:38:17;8.20;99.90
32334;DHT22;18810;53.040;8.850;2023-04-15T06:40:43;8.30;99.90
32334;DHT22;18810;53.040;8.850;2023-04-15T06:43:08;8.30;99.90
32334;DHT22;18810;53.040;8.850;2023-04-15T06:45:34;8.30;99.90
32334;DHT22;18810;53.040;8.850;2023-04-15T06:48:00;8.20;99.90
32334;DHT22;18810;53.040;8.850;2023-04-15T06:50:26;8.30;99.90
32334;DHT22;18810;53.040;8.850;2023-04-15T06:52:53;8.20;99.90
32334;DHT22;18810;53.040;8.850;2023-04-15T06:55:19;8.30;99.90
32334;DHT22;18810;53.040;8.850;2023-04-15T06:57:45;8.30;99.90
32334;DHT22;18810;53.040;8.850;2023-04-15T07:00:11;8.40;99.90
32334;DHT22;18810;53.040;8.850;2023-04-15T07:02:37;8.40;99.90
32334;DHT22;18810;53.040;8.850;2023-04-15T07:05:04;8.50;99.90
32334;DHT22;18810;53.040;8.850;2023-04-15T07:07:30;8.40;99.90
32334;DHT22;18810;53.040;8.850;2023-04-15T07:09:56;8.50;99.90
32334;DHT22;18810;53.040;8.850;2023-04-15T07:12:21;8.50;99.90
32334;DHT22;18810;53.040;8.850;2023-04-15T07:14:47;8.40;99.90
32334;DHT22;18810;53.040;8.850;2023-04-15T07:17:14;8.40;99.90
32334;DHT22;18810;53.040;8.850;2023-04-15T07:19:39;8.50;99.90
32334;DHT22;18810;53.040;8.850;2023-04-15T07:22:05;8.50;99.90
32334;DHT22;18810;53.040;8.850;2023-04-15T07:24:32;8.70;99.90
32334;DHT22;18810;53.040;8.850;2023-04-15T07:26:57;8.70;99.90
32334;DHT22;18810;53.040;8.850;2023-04-15T07:29:24;8.80;99.90
32334;DHT22;18810;53.040;8.850;2023-04-15T07:31:50;8.80;99.90
32334;DHT22;18810;53.040;8.850;2023-04-15T07:34:15;8.80;99.90
32334;DHT22;18810;53.040;8.850;2023-04-15T07:36:41;8.80;99.90
32334;DHT22;18810;53.040;8.850;2023-04-15T07:39:08;8.70;99.90
32334;DHT22;18810;53.040;8.850;2023-04-15T07:41:33;8.80;99.90
32334;DHT22;18810;53.040;8.850;2023-04-15T07:43:59;8.90;99.90
32334;DHT22;18810;53.040;8.850;2023-04-15T07:46:25;9.00;99.90
32334;DHT22;18810;53.040;8.850;2023-04-15T07:48:52;9.20;99.90
32334;DHT22;18810;53.040;8.850;2023-04-15T07:51:19;9.20;99.90
32334;DHT22;18810;53.040;8.850;2023-04-15T07:53:46;9.30;99.90
32334;DHT22;18810;53.040;8.850;2023-04-15T07:56:13;9.20;99.90
32334;DHT22;18810;53.040;8.850;2023-04-15T07:58:38;9.20;99.90
32334;DHT22;18810;53.040;8.850;2023-04-15T08:01:04;9.10;99.90
32334;DHT22;18810;53.040;8.850;2023-04-15T08:03:30;9.10;99.90
32334;DHT22;18810;53.040;8.850;2023-04-15T08:05:57;9.10;99.90
32334;DHT22;18810;53.040;8.850;2023-04-15T08:08:23;9.00;99.90
32334;DHT22;18810;53.040;8.850;2023-04-15T08:10:49;9.00;99.90
32334;DHT22;18810;53.040;8.850;2023-04-15T08:13:15;9.10;99.90
32334;DHT22;18810;53.040;8.850;2023-04-15T08:15:41;9.00;99.90
32334;DHT22;18810;53.040;8.850;2023-04-15T08:18:07;8.90;99.90
32334;DHT22;18810;53.040;8.850;2023-04-15T08:20:33;9.00;99.90
32334;DHT22;18810;53.040;8.850;2023-04-15T08:22:59;9.00;99.90
32334;DHT22;18810;53.040;8.850;2023-04-15T08:25:25;8.90;99.90
32334;DHT22;18810;53.040;8.850;2023-04-15T08:27:54;8.90;99.90
32334;DHT22;18810;53.040;8.850;2023-04-15T08:30:19;8.90;99.90
32334;DHT22;18810;53.040;8.850;2023-04-15T08:32:46;9.00;99.90
32334;DHT22;18810;53.040;8.850;2023-04-15T08:35:12;8.90;99.90
32334;DHT22;18810;53.040;8.850;2023-04-15T08:37:38;9.00;99.90
32334;DHT22;18810;53.040;8.850;2023-04-15T08:40:04;9.10;99.90
32334;DHT22;18810;53.040;8.850;2023-04-15T08:42:31;9.10;99.90
32334;DHT22;18810;53.040;8.850;2023-04-15T08:45:01;9.20;99.90
32334;DHT22;18810;53.040;8.850;2023-04-15T08:47:30;9.20;99.90
32334;DHT22;18810;53.040;8.850;2023-04-15T08:49:58;9.20;99.90
32334;DHT22;18810;53.040;8.850;2023-04-15T08:52:25;9.20;99.90
32334;DHT22;18810;53.040;8.850;2023-04-15T08:54:55;9.30;99.90
32334;DHT22;18810;53.040;8.850;2023-04-15T08:57:24;9.30;99.90
32334;DHT22;18810;53.040;8.850;2023-04-15T08:59:52;9.30;99.90
32334;DHT22;18810;53.040;8.850;2023-04-15T09:02:18;9.30;99.90
32334;DHT22;18810;53.040;8.850;2023-04-15T09:04:44;9.50;99.90
32334;DHT22;18810;53.040;8.850;2023-04-15T09:07:09;9.50;99.90
32334;DHT22;18810;53.040;8.850;2023-04-15T09:09:35;9.60;99.90
32334;DHT22;18810;53.040;8.850;2023-04-15T09:12:04;9.60;99.90
32334;DHT22;18810;53.040;8.850;2023-04-15T09:14:30;9.60;99.90
32334;DHT22;18810;53.040;8.850;2023-04-15T09:17:02;9.60;99.90
32334;DHT22;18810;53.040;8.850;2023-04-15T09:19:28;9.60;99.90
32334;DHT22;18810;53.040;8.850;2023-04-15T09:21:57;9.50;99.90
32334;DHT22;18810;53.040;8.850;2023-04-15T09:24:24;9.50;99.90
32334;DHT22;18810;53.040;8.850;2023-04-15T09:26:52;9.60;99.90
32334;DHT22;18810;53.040;8.850;2023-04-15T09:29:23;9.50;99.90
32334;DHT22;18810;53.040;8.850;2023-04-15T09:31:49;9.50;99.90
32334;DHT22;18810;53.040;8.850;2023-04-15T09:34:16;9.50;99.90
32334;DHT22;18810;53.040;8.850;2023-04-15T09:39:11;9.60;99.90
32334;DHT22;18810;53.040;8.850;2023-04-15T09:41:36;9.70;99.90
32334;DHT22;18810;53.040;8.850;2023-04-15T09:44:03;9.80;99.90
32334;DHT22;18810;53.040;8.850;2023-04-15T09:46:44;9.80;99.90
32334;DHT22;18810;53.040;8.850;2023-04-15T09:49:11;9.70;99.90
32334;DHT22;18810;53.040;8.850;2023-04-15T09:51:40;9.70;99.90
32334;DHT22;18810;53.040;8.850;2023-04-15T09:54:06;9.70;99.90
32334;DHT22;18810;53.040;8.850;2023-04-15T09:56:40;9.70;99.90
32334;DHT22;18810;53.040;8.850;2023-04-15T09:59:09;9.70;99.90
32334;DHT22;18810;53.040;8.850;2023-04-15T10:01:35;9.70;99.90
32334;DHT22;18810;53.040;8.850;2023-04-15T10:04:03;9.70;99.90
32334;DHT22;18810;53.040;8.850;2023-04-15T10:06:29;9.80;99.90
32334;DHT22;18810;53.040;8.850;2023-04-15T10:08:57;9.80;99.90
32334;DHT22;18810;53.040;8.850;2023-04-15T10:11:24;9.80;99.90
32334;DHT22;18810;53.040;8.850;2023-04-15T10:13:50;9.70;99.90
32334;DHT22;18810;53.040;8.850;2023-04-15T10:16:19;9.70;99.90
32334;DHT22;18810;53.040;8.850;2023-04-15T10:18:52;9.90;99.90
32334;DHT22;18810;53.040;8.850;2023-04-15T10:21:20;9.90;99.90
32334;DHT22;18810;53.040;8.850;2023-04-15T10:23:47;10.00;99.90
32334;DHT22;18810;53.040;8.850;2023-04-15T10:26:13;10.20;99.90
32334;DHT22;18810;53.040;8.850;2023-04-15T10:28:49;10.10;99.90
32334;DHT22;18810;53.040;8.850;2023-04-15T10:31:16;10.10;99.90
32334;DHT22;18810;53.040;8.850;2023-04-15T10:33:43;10.20;99.90
32334;DHT22;18810;53.040;8.850;2023-04-15T10:36:09;10.30;99.90
32334;DHT22;18810;53.040;8.850;2023-04-15T10:38:39;10.40;99.90
32334;DHT22;18810;53.040;8.850;2023-04-15T10:43:39;10.50;99.90
32334;DHT22;18810;53.040;8.850;2023-04-15T10:46:05;10.60;99.90
32334;DHT22;18810;53.040;8.850;2023-04-15T10:48:31;10.50;99.90
32334;DHT22;18810;53.040;8.850;2023-04-15T10:50:59;10.50;99.90
32334;DHT22;18810;53.040;8.850;2023-04-15T10:53:28;10.50;99.90
32334;DHT22;18810;53.040;8.850;2023-04-15T10:55:54;10.60;99.90
32334;DHT22;18810;53.040;8.850;2023-04-15T10:58:23;10.60;99.90
32334;DHT22;18810;53.040;8.850;2023-04-15T11:00:50;10.60;99.90
32334;DHT22;18810;53.040;8.850;2023-04-15T11:03:39;10.80;99.90
32334;DHT22;18810;53.040;8.850;2023-04-15T11:06:07;10.90;99.90
32334;DHT22;18810;53.040;8.850;2023-04-15T11:08:55;10.80;99.90
32334;DHT22;18810;53.040;8.850;2023-04-15T11:11:21;10.90;99.90
32334;DHT22;18810;53.040;8.850;2023-04-15T11:13:50;10.90;99.90
32334;DHT22;18810;53.040;8.850;2023-04-15T11:16:17;10.90;99.90
32334;DHT22;18810;53.040;8.850;2023-04-15T11:18:52;11.00;99.90
32334;DHT22;18810;53.040;8.850;2023-04-15T11:21:19;11.00;99.90
32334;DHT22;18810;53.040;8.850;2023-04-15T11:23:48;11.00;99.90
32334;DHT22;18810;53.040;8.850;2023-04-15T11:26:15;11.10;99.90
32334;DHT22;18810;53.040;8.850;2023-04-15T11:28:43;10.90;99.90
32334;DHT22;18810;53.040;8.850;2023-04-15T11:31:16;11.00;99.90
32334;DHT22;18810;53.040;8.850;2023-04-15T11:33:57;11.00;99.90
32334;DHT22;18810;53.040;8.850;2023-04-15T11:36:24;10.90;99.90
32334;DHT22;18810;53.040;8.850;2023-04-15T11:41:23;11.70;99.90
32334;DHT22;18810;53.040;8.850;2023-04-15T11:43:50;11.00;99.90
32334;DHT22;18810;53.040;8.850;2023-04-15T11:46:16;11.00;99.90
32334;DHT22;18810;53.040;8.850;2023-04-15T11:48:44;11.00;99.90
32334;DHT22;18810;53.040;8.850;2023-04-15T11:51:11;10.90;99.90
32334;DHT22;18810;53.040;8.850;2023-04-15T11:53:48;11.00;99.90
32334;DHT22;18810;53.040;8.850;2023-04-15T11:56:24;11.10;99.90
32334;DHT22;18810;53.040;8.850;2023-04-15T11:58:55;11.00;99.90
32334;DHT22;18810;53.040;8.850;2023-04-15T12:01:29;11.10;99.90
32334;DHT22;18810;53.040;8.850;2023-04-15T12:03:55;11.20;99.90
32334;DHT22;18810;53.040;8.850;2023-04-15T12:06:22;11.20;99.90
32334;DHT22;18810;53.040;8.850;2023-04-15T12:19:09;11.30;99.90
32334;DHT22;18810;53.040;8.850;2023-04-15T12:21:37;11.20;99.90
32334;DHT22;18810;53.040;8.850;2023-04-15T12:24:05;11.10;99.90
32334;DHT22;18810;53.040;8.850;2023-04-15T12:26:50;11.00;99.90
32334;DHT22;18810;53.040;8.850;2023-04-15T12:29:16;11.30;99.90
32334;DHT22;18810;53.040;8.850;2023-04-15T12:31:51;11.20;99.90
32334;DHT22;18810;53.040;8.850;2023-04-15T12:34:28;11.20;99.90
32334;DHT22;18810;53.040;8.850;2023-04-15T12:36:55;11.40;99.90
32334;DHT22;18810;53.040;8.850;2023-04-15T12:39:22;11.50;99.90
32334;DHT22;18810;53.040;8.850;2023-04-15T12:41:48;11.90;99.90
32334;DHT22;18810;53.040;8.850;2023-04-15T12:44:14;11.30;99.90
32334;DHT22;18810;53.040;8.850;2023-04-15T12:46:40;11.20;99.90
32334;DHT22;18810;53.040;8.850;2023-04-15T12:49:05;11.30;99.90
32334;DHT22;18810;53.040;8.850;2023-04-15T12:51:31;11.40;99.90
32334;DHT22;18810;53.040;8.850;2023-04-15T12:53:57;11.60;99.90
32334;DHT22;18810;53.040;8.850;2023-04-15T12:56:23;11.70;99.90
32334;DHT22;18810;53.040;8.850;2023-04-15T12:58:48;11.70;99.90
32334;DHT22;18810;53.040;8.850;2023-04-15T13:03:40;11.80;99.90
32334;DHT22;18810;53.040;8.850;2023-04-15T13:06:06;11.70;99.90
32334;DHT22;18810;53.040;8.850;2023-04-15T13:08:32;11.90;99.90
32334;DHT22;18810;53.040;8.850;2023-04-15T13:10:58;12.00;99.90
32334;DHT22;18810;53.040;8.850;2023-04-15T13:13:24;11.90;99.90
32334;DHT22;18810;53.040;8.850;2023-04-15T13:15:50;11.90;99.90
32334;DHT22;18810;53.040;8.850;2023-04-15T13:18:15;11.70;99.90
32334;DHT22;18810;53.040;8.850;2023-04-15T13:20:41;11.80;99.90
32334;DHT22;18810;53.040;8.850;2023-04-15T13:23:07;11.50;99.90
32334;DHT22;18810;53.040;8.850;2023-04-15T13:25:33;12.00;99.90
32334;DHT22;18810;53.040;8.850;2023-04-15T13:27:58;12.00;99.90
32334;DHT22;18810;53.040;8.850;2023-04-15T13:30:26;12.80;99.90
32334;DHT22;18810;53.040;8.850;2023-04-15T13:32:52;12.80;99.90
32334;DHT22;18810;53.040;8.850;2023-04-15T13:35:18;13.10;99.90
32334;DHT22;18810;53.040;8.850;2023-04-15T13:37:45;13.50;99.90
32334;DHT22;18810;53.040;8.850;2023-04-15T13:40:11;14.70;99.90
32334;DHT22;18810;53.040;8.850;2023-04-15T13:42:37;14.70;99.90
32334;DHT22;18810;53.040;8.850;2023-04-15T13:45:03;15.30;99.90
32334;DHT22;18810;53.040;8.850;2023-04-15T13:47:29;15.60;99.90
32334;DHT22;18810;53.040;8.850;2023-04-15T13:49:54;15.80;99.90
32334;DHT22;18810;53.040;8.850;2023-04-15T13:52:21;15.80;99.90
32334;DHT22;18810;53.040;8.850;2023-04-15T13:54:47;15.60;99.90
32334;DHT22;18810;53.040;8.850;2023-04-15T13:57:13;15.30;99.90
32334;DHT22;18810;53.040;8.850;2023-04-15T13:59:39;14.90;99.90
32334;DHT22;18810;53.040;8.850;2023-04-15T14:02:05;14.60;99.90
32334;DHT22;18810;53.040;8.850;2023-04-15T14:04:31;14.00;99.90
32334;DHT22;18810;53.040;8.850;2023-04-15T14:06:57;14.10;99.90
32334;DHT22;18810;53.040;8.850;2023-04-15T14:09:23;14.20;99.90
32334;DHT22;18810;53.040;8.850;2023-04-15T14:11:50;14.20;99.90
32334;DHT22;18810;53.040;8.850;2023-04-15T14:14:15;14.30;99.90
32334;DHT22;18810;53.040;8.850;2023-04-15T14:16:41;14.70;99.90
32334;DHT22;18810;53.040;8.850;2023-04-15T14:19:07;15.20;99.90
32334;DHT22;18810;53.040;8.850;2023-04-15T14:21:32;15.90;99.90
32334;DHT22;18810;53.040;8.850;2023-04-15T14:23:58;16.00;99.90
32334;DHT22;18810;53.040;8.850;2023-04-15T14:26:24;16.00;99.90
32334;DHT22;18810;53.040;8.850;2023-04-15T14:28:50;16.10;99.90
32334;DHT22;18810;53.040;8.850;2023-04-15T14:31:15;16.00;99.90
32334;DHT22;18810;53.040;8.850;2023-04-15T14:33:41;15.90;99.90
32334;DHT22;18810;53.040;8.850;2023-04-15T14:36:08;15.50;99.90
32334;DHT22;18810;53.040;8.850;2023-04-15T14:38:34;15.50;99.90
32334;DHT22;18810;53.040;8.850;2023-04-15T14:41:04;15.70;99.90
32334;DHT22;18810;53.040;8.850;2023-04-15T14:43:30;15.50;99.90
32334;DHT22;18810;53.040;8.850;2023-04-15T14:45:56;15.30;99.90
32334;DHT22;18810;53.040;8.850;2023-04-15T14:48:22;15.00;99.90
32334;DHT22;18810;53.040;8.850;2023-04-15T14:50:47;15.00;99.90
32334;DHT22;18810;53.040;8.850;2023-04-15T14:53:13;15.00;99.90
32334;DHT22;18810;53.040;8.850;2023-04-15T14:55:39;15.20;99.90
32334;DHT22;18810;53.040;8.850;2023-04-15T14:58:05;15.00;99.90
32334;DHT22;18810;53.040;8.850;2023-04-15T15:00:32;14.20;99.90
32334;DHT22;18810;53.040;8.850;2023-04-15T15:02:58;15.10;99.90
32334;DHT22;18810;53.040;8.850;2023-04-15T15:05:24;15.50;99.90
32334;DHT22;18810;53.040;8.850;2023-04-15T15:07:50;15.30;99.90
32334;DHT22;18810;53.040;8.850;2023-04-15T15:10:15;14.90;99.90
32334;DHT22;18810;53.040;8.850;2023-04-15T15:12:41;14.80;99.90
32334;DHT22;18810;53.040;8.850;2023-04-15T15:15:07;14.60;99.90
32334;DHT22;18810;53.040;8.850;2023-04-15T15:17:34;14.20;99.90
32334;DHT22;18810;53.040;8.850;2023-04-15T15:20:00;14.40;99.90
32334;DHT22;18810;53.040;8.850;2023-04-15T15:22:26;14.70;99.90
32334;DHT22;18810;53.040;8.850;2023-04-15T15:24:51;14.90;99.90
32334;DHT22;18810;53.040;8.850;2023-04-15T15:27:18;14.90;99.90
32334;DHT22;18810;53.040;8.850;2023-04-15T15:29:43;14.90;99.90
32334;DHT22;18810;53.040;8.850;2023-04-15T15:32:09;15.00;99.90
32334;DHT22;18810;53.040;8.850;2023-04-15T15:34:35;15.00;99.90
32334;DHT22;18810;53.040;8.850;2023-04-15T15:37:00;15.10;99.90
32334;DHT22;18810;53.040;8.850;2023-04-15T15:39:26;15.30;99.90
32334;DHT22;18810;53.040;8.850;2023-04-15T15:41:52;15.40;99.90
32334;DHT22;18810;53.040;8.850;2023-04-15T15:44:17;15.30;99.90
32334;DHT22;18810;53.040;8.850;2023-04-15T15:46:43;15.40;99.90
32334;DHT22;18810;53.040;8.850;2023-04-15T15:49:10;15.50;99.90
32334;DHT22;18810;53.040;8.850;2023-04-15T15:51:35;15.50;99.90
32334;DHT22;18810;53.040;8.850;2023-04-15T15:54:01;15.40;99.90
32334;DHT22;18810;53.040;8.850;2023-04-15T15:56:27;15.20;99.90